WetterOnline ( https://www.wetteronline.de )

Wetter aktuell Dittelsdorf

Aktuelles Wetter: Liberec (401m)

6-stündlich | Neueste Meldungen
Ortszeit Temperatur Wetter
Sa, 23.10. 8:00 3.4° C wolkig
Sa, 23.10. 2:00 5.1° C bedeckt
Fr, 22.10. 20:00 8.1° C bewölkt
Fr, 22.10. 14:00 7.6° C leicht bewölkt
Fr, 22.10. 8:00 3.8° C leicht bewölkt
Fr, 22.10. 2:00 5.8° C leicht bewölkt
Do, 21.10. 20:00 9.5° C leicht bewölkt
Do, 21.10. 14:00 11.8° C leichte Schauer
Ortszeit Temperatur Wetter
Sa, 23.10. 13:00 7.6° C bewölkt
Sa, 23.10. 12:00 7.7° C bewölkt
Sa, 23.10. 11:00 6.1° C bewölkt
Sa, 23.10. 10:00 5.7° C bewölkt
Sa, 23.10. 9:00 5.2° C wolkig
Sa, 23.10. 8:00 3.4° C wolkig
Ortszeit Relative Feuchte Sichtweite
Sa, 23.10. 8:00 84% 40 km
Sa, 23.10. 2:00 80% 35 km
Fr, 22.10. 20:00 55% 40 km
Fr, 22.10. 14:00 57% 50 km
Fr, 22.10. 8:00 77% 40 km
Fr, 22.10. 2:00 74% 35 km
Do, 21.10. 20:00 59% 40 km
Do, 21.10. 14:00 64% 22 km
Ortszeit Relative Feuchte Sichtweite
Sa, 23.10. 13:00 70% 45 km
Sa, 23.10. 12:00 68% 40 km
Sa, 23.10. 11:00 75% 40 km
Sa, 23.10. 10:00 77% 45 km
Sa, 23.10. 9:00 79% 40 km
Sa, 23.10. 8:00 84% 40 km
Ortszeit Niederschlagsmenge Niederschlagsart
Sa, 23.10. 8:00 0.5 l/m2 in 12 Std. -
Sa, 23.10. 2:00 0.5 l/m2 in 6 Std. Regenschauer
Fr, 22.10. 20:00 0.0 l/m2 in 12 Std. -
Fr, 22.10. 14:00 0.0 l/m2 in 6 Std. -
Fr, 22.10. 8:00 0.2 l/m2 in 12 Std. -
Fr, 22.10. 2:00 0.2 l/m2 in 6 Std. Regenschauer
Do, 21.10. 20:00 3 l/m2 in 12 Std. -
Do, 21.10. 14:00 2 l/m2 in 6 Std. Regenschauer
Ortszeit Niederschlagsmenge Niederschlagsart
Sa, 23.10. 13:00 0.0 l/m2 in 1 Std. -
Sa, 23.10. 12:00 0.0 l/m2 in 1 Std. -
Sa, 23.10. 11:00 0.0 l/m2 in 1 Std. -
Sa, 23.10. 10:00 0.0 l/m2 in 1 Std. -
Sa, 23.10. 9:00 0.0 l/m2 in 1 Std. -
Sa, 23.10. 8:00 0.0 l/m2 in 1 Std. -
Ortszeit Stärke Spitze Richtung
km/h Bft. km/h Grad Sektor
Sa, 23.10. 8:00 7 2 - 310° NW
Sa, 23.10. 2:00 14 3 47 310° NW
Fr, 22.10. 20:00 22 4 54 250° W
Fr, 22.10. 14:00 25 4 43 220° SW
Fr, 22.10. 8:00 18 3 - 230° SW
Fr, 22.10. 2:00 18 3 47 280° W
Do, 21.10. 20:00 22 4 58 210° SW
Do, 21.10. 14:00 36 5 79 240° SW
Ortszeit Stärke Spitze Richtung
km/h Bft. km/h Grad Sektor
Sa, 23.10. 13:00 18 3 - 290° W
Sa, 23.10. 12:00 25 4 - 270° W
Sa, 23.10. 11:00 22 4 - 290° W
Sa, 23.10. 10:00 22 4 - 270° W
Sa, 23.10. 9:00 14 3 - 280° W
Sa, 23.10. 8:00 7 2 - 310° NW
Ortszeit Untergrenze Bedeckung Gattung
total tief tief mittel hoch
Sa, 23.10. 8:00 450 m 6/8 5/8 Sc As Ci
Sa, 23.10. 2:00 2400 m - 8/8 - - -
Fr, 22.10. 20:00 1200 m 7/8 6/8 Sc As Ci
Fr, 22.10. 14:00 960 m 4/8 3/8 Cu - Ci
Fr, 22.10. 8:00 480 m 2/8 2/8 Sc Ac -
Fr, 22.10. 2:00 870 m - 4/8 - - -
Do, 21.10. 20:00 3600 m 2/8 2/8 - Ac -
Do, 21.10. 14:00 1200 m 8/8 7/8 Cu As -
Ortszeit Bedeckungsgrad in Achtel und Wolkenuntergrenze
Sa, 23.10. 13:00 3(690m) 5(1200m) 7(1500m)
Sa, 23.10. 12:00 1(480m) 3(690m) 6(1290m)
Sa, 23.10. 11:00 1(450m) 3(600m) 6(990m)
Sa, 23.10. 10:00 2(480m) 4(780m) 6(1200m)
Sa, 23.10. 9:00 2(480m) 6(750m)
Sa, 23.10. 8:00 1(450m) 3(630m) 5(990m)
Ortszeit Luftdruck NN (hPa) Tendenz (hPa in 3 Std.)
Sa, 23.10. 8:00 1024 + 1,8
Sa, 23.10. 2:00 1020 + 1,9
Fr, 22.10. 20:00 1015 + 1,1
Fr, 22.10. 14:00 1014 - 0,8
Fr, 22.10. 8:00 1015 + 1,0
Fr, 22.10. 2:00 1012 + 2,1
Do, 21.10. 20:00 1007 + 1,3
Do, 21.10. 14:00 1002 + 3,3
Ortszeit Luftdruck NN (hPa) Tendenz (hPa in 3 Std.)
Sa, 23.10. 13:00 1026 + 1,3
Sa, 23.10. 12:00 1026 + 1,8
Sa, 23.10. 11:00 1026 + 1,9
Sa, 23.10. 10:00 1025 + 1,9
Sa, 23.10. 9:00 1024 + 1,7
Sa, 23.10. 8:00 1024 + 1,8
Ortszeit Schneehöhe (cm)
Sa, 23.10. 8:00 0
Sa, 23.10. 2:00 -
Fr, 22.10. 20:00 -
Fr, 22.10. 14:00 -
Fr, 22.10. 8:00 0
Fr, 22.10. 2:00 -
Do, 21.10. 20:00 -
Do, 21.10. 14:00 -
Ortszeit Schneehöhe (cm)
Sa, 23.10. 13:00 -
Sa, 23.10. 12:00 -
Sa, 23.10. 11:00 -
Sa, 23.10. 10:00 -
Sa, 23.10. 9:00 -
Sa, 23.10. 8:00 0
Link zu dieser Seite / Seite empfehlen

Das Wetter in ...